sensor_id;sensor_type;location;lat;lon;timestamp;pressure;altitude;pressure_sealevel;temperature;humidity
13420;BME280;6781;58.440;15.470;2023-05-08T00:00:38;102188.06;;;4.32;100.00
13420;BME280;6781;58.440;15.470;2023-05-08T00:03:06;102157.38;;;4.28;100.00
13420;BME280;6781;58.440;15.470;2023-05-08T00:05:33;102302.63;;;5.01;100.00
13420;BME280;6781;58.440;15.470;2023-05-08T00:08:02;102218.31;;;4.53;100.00
13420;BME280;6781;58.440;15.470;2023-05-08T00:10:29;102257.97;;;4.74;100.00
13420;BME280;6781;58.440;15.470;2023-05-08T00:12:56;102323.28;;;4.98;100.00
13420;BME280;6781;58.440;15.470;2023-05-08T00:15:23;102149.22;;;3.79;100.00
13420;BME280;6781;58.440;15.470;2023-05-08T00:17:50;102187.94;;;4.04;100.00
13420;BME280;6781;58.440;15.470;2023-05-08T00:20:17;102301.16;;;4.93;100.00
13420;BME280;6781;58.440;15.470;2023-05-08T00:22:44;102287.16;;;4.72;100.00
13420;BME280;6781;58.440;15.470;2023-05-08T00:25:16;102265.94;;;4.65;100.00
13420;BME280;6781;58.440;15.470;2023-05-08T00:27:43;102105.00;;;3.70;100.00
13420;BME280;6781;58.440;15.470;2023-05-08T00:30:11;102172.47;;;3.73;100.00
13420;BME280;6781;58.440;15.470;2023-05-08T00:32:38;102297.06;;;4.54;100.00
13420;BME280;6781;58.440;15.470;2023-05-08T00:35:06;102327.81;;;4.57;100.00
13420;BME280;6781;58.440;15.470;2023-05-08T00:37:33;102292.63;;;4.60;100.00
13420;BME280;6781;58.440;15.470;2023-05-08T00:40:02;102211.63;;;3.81;100.00
13420;BME280;6781;58.440;15.470;2023-05-08T00:42:31;102280.50;;;4.32;100.00
13420;BME280;6781;58.440;15.470;2023-05-08T00:45:01;102017.53;;;2.80;100.00
13420;BME280;6781;58.440;15.470;2023-05-08T00:47:28;102033.59;;;2.86;100.00
13420;BME280;6781;58.440;15.470;2023-05-08T00:49:56;102295.38;;;4.53;100.00
13420;BME280;6781;58.440;15.470;2023-05-08T00:52:29;102123.09;;;3.31;100.00
13420;BME280;6781;58.440;15.470;2023-05-08T00:54:56;102257.22;;;4.06;100.00
13420;BME280;6781;58.440;15.470;2023-05-08T00:57:24;102152.28;;;3.25;100.00
13420;BME280;6781;58.440;15.470;2023-05-08T00:59:54;102318.00;;;4.39;100.00
13420;BME280;6781;58.440;15.470;2023-05-08T01:02:21;102211.75;;;3.75;100.00
13420;BME280;6781;58.440;15.470;2023-05-08T01:04:49;102072.97;;;2.82;100.00
13420;BME280;6781;58.440;15.470;2023-05-08T01:07:18;102286.25;;;4.08;100.00
13420;BME280;6781;58.440;15.470;2023-05-08T01:09:45;102286.09;;;4.14;100.00
13420;BME280;6781;58.440;15.470;2023-05-08T01:12:29;102279.44;;;4.07;100.00
13420;BME280;6781;58.440;15.470;2023-05-08T01:15:10;102191.84;;;3.51;100.00
13420;BME280;6781;58.440;15.470;2023-05-08T01:17:44;102256.25;;;3.74;100.00
13420;BME280;6781;58.440;15.470;2023-05-08T01:20:26;102242.34;;;3.84;100.00
13420;BME280;6781;58.440;15.470;2023-05-08T01:32:29;102286.75;;;3.86;100.00
13420;BME280;6781;58.440;15.470;2023-05-08T01:35:09;102284.69;;;3.65;100.00
13420;BME280;6781;58.440;15.470;2023-05-08T01:37:47;102181.59;;;3.14;100.00
13420;BME280;6781;58.440;15.470;2023-05-08T01:40:20;102335.38;;;3.92;100.00
13420;BME280;6781;58.440;15.470;2023-05-08T01:42:57;102330.31;;;3.89;100.00
13420;BME280;6781;58.440;15.470;2023-05-08T01:45:30;102238.44;;;3.33;100.00
13420;BME280;6781;58.440;15.470;2023-05-08T01:48:03;102316.00;;;3.79;100.00
13420;BME280;6781;58.440;15.470;2023-05-08T01:50:35;102314.88;;;3.54;100.00
13420;BME280;6781;58.440;15.470;2023-05-08T01:53:13;102337.28;;;3.84;100.00
13420;BME280;6781;58.440;15.470;2023-05-08T01:55:42;102119.09;;;2.42;100.00
13420;BME280;6781;58.440;15.470;2023-05-08T01:58:13;102335.25;;;3.60;100.00
13420;BME280;6781;58.440;15.470;2023-05-08T02:00:42;102269.91;;;2.99;100.00
13420;BME280;6781;58.440;15.470;2023-05-08T02:03:12;102211.34;;;2.81;100.00
13420;BME280;6781;58.440;15.470;2023-05-08T02:08:16;102344.53;;;3.66;100.00
13420;BME280;6781;58.440;15.470;2023-05-08T02:10:45;102052.69;;;1.93;100.00
13420;BME280;6781;58.440;15.470;2023-05-08T02:13:14;102247.03;;;2.90;100.00
13420;BME280;6781;58.440;15.470;2023-05-08T02:15:45;102360.19;;;3.53;100.00
13420;BME280;6781;58.440;15.470;2023-05-08T02:18:16;102269.03;;;3.00;100.00
13420;BME280;6781;58.440;15.470;2023-05-08T02:20:44;102258.09;;;2.92;100.00
13420;BME280;6781;58.440;15.470;2023-05-08T02:23:13;102260.38;;;2.63;100.00
13420;BME280;6781;58.440;15.470;2023-05-08T02:25:43;102340.06;;;3.37;100.00
13420;BME280;6781;58.440;15.470;2023-05-08T02:28:10;102195.84;;;2.45;100.00
13420;BME280;6781;58.440;15.470;2023-05-08T02:30:38;102189.09;;;2.41;100.00
13420;BME280;6781;58.440;15.470;2023-05-08T02:33:07;102313.97;;;3.16;100.00
13420;BME280;6781;58.440;15.470;2023-05-08T02:35:38;102344.44;;;3.32;100.00
13420;BME280;6781;58.440;15.470;2023-05-08T02:38:07;102312.66;;;2.97;100.00
13420;BME280;6781;58.440;15.470;2023-05-08T02:40:36;102347.81;;;3.34;100.00
13420;BME280;6781;58.440;15.470;2023-05-08T02:43:05;102169.66;;;2.31;100.00
13420;BME280;6781;58.440;15.470;2023-05-08T02:45:51;102350.34;;;3.35;100.00
13420;BME280;6781;58.440;15.470;2023-05-08T02:48:25;102295.72;;;2.90;100.00
13420;BME280;6781;58.440;15.470;2023-05-08T02:50:59;102153.13;;;2.03;100.00
13420;BME280;6781;58.440;15.470;2023-05-08T02:53:33;102331.94;;;3.15;100.00
13420;BME280;6781;58.440;15.470;2023-05-08T02:56:06;102206.19;;;2.39;100.00
13420;BME280;6781;58.440;15.470;2023-05-08T02:58:39;102256.94;;;2.64;100.00
13420;BME280;6781;58.440;15.470;2023-05-08T03:01:15;102290.72;;;2.84;100.00
13420;BME280;6781;58.440;15.470;2023-05-08T03:03:46;102279.78;;;2.74;100.00
13420;BME280;6781;58.440;15.470;2023-05-08T03:06:19;102360.25;;;3.10;100.00
13420;BME280;6781;58.440;15.470;2023-05-08T03:08:48;102158.50;;;1.87;100.00
13420;BME280;6781;58.440;15.470;2023-05-08T03:11:23;102151.56;;;1.94;100.00
13420;BME280;6781;58.440;15.470;2023-05-08T03:13:55;102229.13;;;2.45;100.00
13420;BME280;6781;58.440;15.470;2023-05-08T03:16:26;102341.31;;;3.17;100.00
13420;BME280;6781;58.440;15.470;2023-05-08T03:19:00;102255.06;;;2.72;100.00
13420;BME280;6781;58.440;15.470;2023-05-08T03:21:31;102234.72;;;2.66;100.00
13420;BME280;6781;58.440;15.470;2023-05-08T03:23:59;102197.59;;;2.43;100.00
13420;BME280;6781;58.440;15.470;2023-05-08T03:26:28;102258.34;;;2.80;100.00
13420;BME280;6781;58.440;15.470;2023-05-08T03:28:55;102368.13;;;3.43;100.00
13420;BME280;6781;58.440;15.470;2023-05-08T03:31:24;102354.34;;;3.47;100.00
13420;BME280;6781;58.440;15.470;2023-05-08T03:33:53;102302.84;;;3.17;100.00
13420;BME280;6781;58.440;15.470;2023-05-08T03:36:21;102347.41;;;3.52;100.00
13420;BME280;6781;58.440;15.470;2023-05-08T03:38:50;102230.91;;;2.85;100.00
13420;BME280;6781;58.440;15.470;2023-05-08T03:41:17;102035.19;;;1.73;100.00
13420;BME280;6781;58.440;15.470;2023-05-08T03:43:45;102342.94;;;3.60;100.00
13420;BME280;6781;58.440;15.470;2023-05-08T03:46:12;102256.41;;;2.91;100.00
13420;BME280;6781;58.440;15.470;2023-05-08T03:48:53;102196.97;;;2.74;100.00
13420;BME280;6781;58.440;15.470;2023-05-08T03:51:21;102359.56;;;3.82;100.00
13420;BME280;6781;58.440;15.470;2023-05-08T03:53:50;102175.88;;;2.61;100.00
13420;BME280;6781;58.440;15.470;2023-05-08T03:56:17;102237.88;;;3.20;100.00
13420;BME280;6781;58.440;15.470;2023-05-08T03:58:47;102274.97;;;3.42;100.00
13420;BME280;6781;58.440;15.470;2023-05-08T04:01:22;102320.31;;;3.79;100.00
13420;BME280;6781;58.440;15.470;2023-05-08T04:04:09;102247.22;;;3.22;100.00
13420;BME280;6781;58.440;15.470;2023-05-08T04:06:43;102245.63;;;3.17;100.00
13420;BME280;6781;58.440;15.470;2023-05-08T04:09:19;102051.53;;;2.08;100.00
13420;BME280;6781;58.440;15.470;2023-05-08T04:11:56;102318.25;;;3.56;100.00
13420;BME280;6781;58.440;15.470;2023-05-08T04:14:30;102258.75;;;3.42;100.00
13420;BME280;6781;58.440;15.470;2023-05-08T04:17:02;102357.47;;;4.00;100.00
13420;BME280;6781;58.440;15.470;2023-05-08T04:19:34;102186.47;;;2.86;100.00
13420;BME280;6781;58.440;15.470;2023-05-08T04:22:06;102335.72;;;3.77;100.00
13420;BME280;6781;58.440;15.470;2023-05-08T04:24:39;102338.16;;;3.83;100.00
13420;BME280;6781;58.440;15.470;2023-05-08T04:27:08;102140.69;;;2.71;100.00
13420;BME280;6781;58.440;15.470;2023-05-08T04:29:36;102391.63;;;4.03;100.00
13420;BME280;6781;58.440;15.470;2023-05-08T04:32:04;102120.72;;;2.46;100.00
13420;BME280;6781;58.440;15.470;2023-05-08T04:34:32;102176.81;;;2.99;100.00
13420;BME280;6781;58.440;15.470;2023-05-08T04:36:59;102244.31;;;3.38;100.00
13420;BME280;6781;58.440;15.470;2023-05-08T04:42:29;102248.25;;;3.51;100.00
13420;BME280;6781;58.440;15.470;2023-05-08T04:45:00;102361.09;;;4.28;100.00
13420;BME280;6781;58.440;15.470;2023-05-08T04:47:32;102417.56;;;4.28;100.00
13420;BME280;6781;58.440;15.470;2023-05-08T04:50:10;102218.00;;;3.30;100.00
13420;BME280;6781;58.440;15.470;2023-05-08T04:55:45;102334.22;;;4.06;100.00
13420;BME280;6781;58.440;15.470;2023-05-08T04:58:25;102100.84;;;2.57;100.00
13420;BME280;6781;58.440;15.470;2023-05-08T05:03:51;102099.38;;;2.86;100.00
13420;BME280;6781;58.440;15.470;2023-05-08T05:06:20;102274.31;;;4.07;100.00
13420;BME280;6781;58.440;15.470;2023-05-08T05:08:53;102304.59;;;4.28;100.00
13420;BME280;6781;58.440;15.470;2023-05-08T05:11:24;102189.78;;;3.65;100.00
13420;BME280;6781;58.440;15.470;2023-05-08T05:13:57;102288.72;;;4.46;100.00
13420;BME280;6781;58.440;15.470;2023-05-08T05:16:25;102371.34;;;4.96;100.00
13420;BME280;6781;58.440;15.470;2023-05-08T05:18:57;102214.22;;;4.14;100.00
13420;BME280;6781;58.440;15.470;2023-05-08T05:21:31;102433.66;;;5.37;100.00
13420;BME280;6781;58.440;15.470;2023-05-08T05:24:02;102224.59;;;4.42;100.00
13420;BME280;6781;58.440;15.470;2023-05-08T05:26:44;102415.75;;;5.63;100.00
13420;BME280;6781;58.440;15.470;2023-05-08T05:29:18;102371.53;;;5.78;100.00
13420;BME280;6781;58.440;15.470;2023-05-08T05:32:01;102384.63;;;6.00;100.00
13420;BME280;6781;58.440;15.470;2023-05-08T05:34:52;102380.50;;;6.23;100.00
13420;BME280;6781;58.440;15.470;2023-05-08T05:37:27;102204.00;;;5.32;100.00
13420;BME280;6781;58.440;15.470;2023-05-08T05:39:56;102370.78;;;6.57;100.00
13420;BME280;6781;58.440;15.470;2023-05-08T05:42:23;102328.72;;;6.30;100.00
13420;BME280;6781;58.440;15.470;2023-05-08T05:44:52;102246.69;;;6.18;100.00
13420;BME280;6781;58.440;15.470;2023-05-08T05:47:23;102253.81;;;6.36;100.00
13420;BME280;6781;58.440;15.470;2023-05-08T05:52:34;102089.06;;;5.83;100.00
13420;BME280;6781;58.440;15.470;2023-05-08T05:55:01;102273.78;;;7.01;100.00
13420;BME280;6781;58.440;15.470;2023-05-08T05:57:29;102266.16;;;7.22;100.00
13420;BME280;6781;58.440;15.470;2023-05-08T05:59:58;102359.41;;;8.03;100.00
13420;BME280;6781;58.440;15.470;2023-05-08T06:02:34;102367.56;;;8.14;100.00
13420;BME280;6781;58.440;15.470;2023-05-08T06:05:01;102195.09;;;7.35;100.00
13420;BME280;6781;58.440;15.470;2023-05-08T06:07:28;102247.75;;;7.74;100.00
13420;BME280;6781;58.440;15.470;2023-05-08T06:09:55;102335.19;;;8.47;100.00
13420;BME280;6781;58.440;15.470;2023-05-08T06:12:22;102104.38;;;7.02;100.00
13420;BME280;6781;58.440;15.470;2023-05-08T06:14:54;102074.03;;;7.08;100.00
13420;BME280;6781;58.440;15.470;2023-05-08T06:17:23;102325.34;;;8.76;100.00
13420;BME280;6781;58.440;15.470;2023-05-08T06:19:52;102335.09;;;8.90;100.00
13420;BME280;6781;58.440;15.470;2023-05-08T06:22:21;102345.25;;;8.94;100.00
13420;BME280;6781;58.440;15.470;2023-05-08T06:24:49;102315.53;;;9.03;100.00
13420;BME280;6781;58.440;15.470;2023-05-08T06:27:23;102165.34;;;8.09;100.00
13420;BME280;6781;58.440;15.470;2023-05-08T06:29:53;102311.69;;;9.11;99.66
13420;BME280;6781;58.440;15.470;2023-05-08T06:32:21;102046.06;;;7.60;98.66
13420;BME280;6781;58.440;15.470;2023-05-08T06:34:49;102311.28;;;9.21;97.73
13420;BME280;6781;58.440;15.470;2023-05-08T06:37:16;102306.09;;;9.39;96.54
13420;BME280;6781;58.440;15.470;2023-05-08T06:39:43;102314.00;;;9.55;96.36
13420;BME280;6781;58.440;15.470;2023-05-08T06:42:10;102217.25;;;9.01;96.43
13420;BME280;6781;58.440;15.470;2023-05-08T06:44:37;102207.47;;;8.89;95.88
13420;BME280;6781;58.440;15.470;2023-05-08T06:47:05;102307.91;;;9.56;94.45
13420;BME280;6781;58.440;15.470;2023-05-08T06:49:35;102276.50;;;9.45;94.07
13420;BME280;6781;58.440;15.470;2023-05-08T06:52:05;102233.66;;;9.38;93.42
13420;BME280;6781;58.440;15.470;2023-05-08T06:54:32;102311.41;;;9.91;95.03
13420;BME280;6781;58.440;15.470;2023-05-08T06:56:59;102245.41;;;9.45;93.56
13420;BME280;6781;58.440;15.470;2023-05-08T06:59:26;102182.94;;;9.51;93.49
13420;BME280;6781;58.440;15.470;2023-05-08T07:01:53;102313.81;;;10.13;90.76
13420;BME280;6781;58.440;15.470;2023-05-08T07:04:20;102050.00;;;8.81;87.89
13420;BME280;6781;58.440;15.470;2023-05-08T07:06:47;102136.34;;;9.51;88.14
13420;BME280;6781;58.440;15.470;2023-05-08T07:09:15;102249.72;;;10.50;87.99
13420;BME280;6781;58.440;15.470;2023-05-08T07:11:42;102280.72;;;11.01;84.48
13420;BME280;6781;58.440;15.470;2023-05-08T07:14:09;102277.28;;;11.17;82.56
13420;BME280;6781;58.440;15.470;2023-05-08T07:16:36;102278.47;;;11.43;81.67
13420;BME280;6781;58.440;15.470;2023-05-08T07:19:03;102139.91;;;10.49;78.98
13420;BME280;6781;58.440;15.470;2023-05-08T07:21:30;102243.94;;;11.25;78.13
13420;BME280;6781;58.440;15.470;2023-05-08T07:23:57;102151.44;;;10.43;79.33
13420;BME280;6781;58.440;15.470;2023-05-08T07:26:26;102178.94;;;10.79;77.92
13420;BME280;6781;58.440;15.470;2023-05-08T07:28:53;102153.31;;;10.73;76.38
13420;BME280;6781;58.440;15.470;2023-05-08T07:31:20;102090.47;;;10.68;78.09
13420;BME280;6781;58.440;15.470;2023-05-08T07:33:47;102096.72;;;10.95;77.90
13420;BME280;6781;58.440;15.470;2023-05-08T07:36:14;102271.28;;;12.52;76.52
13420;BME280;6781;58.440;15.470;2023-05-08T07:38:41;102245.06;;;12.69;75.67
13420;BME280;6781;58.440;15.470;2023-05-08T07:41:08;102164.94;;;12.46;74.52
13420;BME280;6781;58.440;15.470;2023-05-08T07:43:41;102163.06;;;12.62;72.55
13420;BME280;6781;58.440;15.470;2023-05-08T07:46:15;102060.25;;;12.28;72.54
13420;BME280;6781;58.440;15.470;2023-05-08T07:48:42;102200.72;;;13.26;69.88
13420;BME280;6781;58.440;15.470;2023-05-08T07:51:09;102132.47;;;13.07;70.04
13420;BME280;6781;58.440;15.470;2023-05-08T07:53:36;102204.00;;;13.42;69.39
13420;BME280;6781;58.440;15.470;2023-05-08T07:56:19;102168.47;;;13.54;68.41
13420;BME280;6781;58.440;15.470;2023-05-08T07:58:47;102263.31;;;14.30;68.60
13420;BME280;6781;58.440;15.470;2023-05-08T08:01:14;102145.53;;;13.46;67.91
13420;BME280;6781;58.440;15.470;2023-05-08T08:03:42;102087.97;;;13.49;66.37
13420;BME280;6781;58.440;15.470;2023-05-08T08:06:10;102184.06;;;14.06;66.52
13420;BME280;6781;58.440;15.470;2023-05-08T08:08:37;102245.06;;;14.43;64.59
13420;BME280;6781;58.440;15.470;2023-05-08T08:11:04;102235.25;;;14.47;63.65
13420;BME280;6781;58.440;15.470;2023-05-08T08:13:31;102110.06;;;14.07;64.18
13420;BME280;6781;58.440;15.470;2023-05-08T08:16:00;102230.13;;;14.58;62.43
13420;BME280;6781;58.440;15.470;2023-05-08T08:18:28;102088.25;;;14.08;62.74
13420;BME280;6781;58.440;15.470;2023-05-08T08:20:55;102161.78;;;15.01;63.84
13420;BME280;6781;58.440;15.470;2023-05-08T08:23:22;102232.56;;;15.69;62.02
13420;BME280;6781;58.440;15.470;2023-05-08T08:25:49;102226.22;;;15.95;60.44
13420;BME280;6781;58.440;15.470;2023-05-08T08:28:18;102071.22;;;14.88;61.10
13420;BME280;6781;58.440;15.470;2023-05-08T08:30:45;102186.38;;;15.92;59.47
13420;BME280;6781;58.440;15.470;2023-05-08T08:33:13;102220.22;;;16.28;58.51
13420;BME280;6781;58.440;15.470;2023-05-08T08:35:40;102018.88;;;15.01;57.11
13420;BME280;6781;58.440;15.470;2023-05-08T08:38:07;102139.38;;;15.90;56.95
13420;BME280;6781;58.440;15.470;2023-05-08T08:40:38;102084.28;;;15.58;56.23
13420;BME280;6781;58.440;15.470;2023-05-08T08:43:05;102184.25;;;16.31;55.21
13420;BME280;6781;58.440;15.470;2023-05-08T08:45:32;102176.88;;;16.47;54.38
13420;BME280;6781;58.440;15.470;2023-05-08T08:48:01;102216.31;;;16.79;53.30
13420;BME280;6781;58.440;15.470;2023-05-08T08:50:31;102188.78;;;16.51;51.14
13420;BME280;6781;58.440;15.470;2023-05-08T08:53:05;102096.19;;;16.07;50.78
13420;BME280;6781;58.440;15.470;2023-05-08T08:55:37;102188.78;;;16.51;51.02
13420;BME280;6781;58.440;15.470;2023-05-08T08:58:13;102181.03;;;16.83;52.43
13420;BME280;6781;58.440;15.470;2023-05-08T09:00:41;102154.09;;;16.92;52.23
13420;BME280;6781;58.440;15.470;2023-05-08T09:03:08;102142.84;;;17.33;52.53
13420;BME280;6781;58.440;15.470;2023-05-08T09:05:37;102121.31;;;16.98;51.93
13420;BME280;6781;58.440;15.470;2023-05-08T09:08:05;102180.44;;;17.43;50.37
13420;BME280;6781;58.440;15.470;2023-05-08T09:10:35;102015.03;;;16.62;51.15
13420;BME280;6781;58.440;15.470;2023-05-08T09:13:02;102175.69;;;17.90;50.20
13420;BME280;6781;58.440;15.470;2023-05-08T09:15:30;102198.09;;;17.73;50.48
13420;BME280;6781;58.440;15.470;2023-05-08T09:17:57;102146.94;;;17.47;48.90
13420;BME280;6781;58.440;15.470;2023-05-08T09:20:24;102189.47;;;16.98;47.15
13420;BME280;6781;58.440;15.470;2023-05-08T09:22:53;102100.75;;;17.14;49.79
13420;BME280;6781;58.440;15.470;2023-05-08T09:25:20;102147.84;;;17.78;47.97
13420;BME280;6781;58.440;15.470;2023-05-08T09:27:48;102172.72;;;18.35;50.16
13420;BME280;6781;58.440;15.470;2023-05-08T09:30:16;102073.28;;;17.90;49.67
13420;BME280;6781;58.440;15.470;2023-05-08T09:32:43;102146.50;;;18.54;46.50
13420;BME280;6781;58.440;15.470;2023-05-08T09:35:11;102156.44;;;18.91;47.30
13420;BME280;6781;58.440;15.470;2023-05-08T09:37:38;102144.97;;;18.92;46.53
13420;BME280;6781;58.440;15.470;2023-05-08T09:40:14;102081.22;;;18.49;46.88
13420;BME280;6781;58.440;15.470;2023-05-08T09:42:42;102139.09;;;18.69;46.05
13420;BME280;6781;58.440;15.470;2023-05-08T09:45:10;102137.06;;;18.42;45.29
13420;BME280;6781;58.440;15.470;2023-05-08T09:47:37;102145.31;;;18.28;45.18
13420;BME280;6781;58.440;15.470;2023-05-08T09:50:06;102135.31;;;18.52;45.60
13420;BME280;6781;58.440;15.470;2023-05-08T09:52:34;102081.28;;;18.69;47.45
13420;BME280;6781;58.440;15.470;2023-05-08T09:55:02;102120.28;;;17.93;44.22
13420;BME280;6781;58.440;15.470;2023-05-08T09:57:32;102010.06;;;18.03;45.78
13420;BME280;6781;58.440;15.470;2023-05-08T10:00:03;102069.78;;;18.99;46.76
13420;BME280;6781;58.440;15.470;2023-05-08T10:02:30;102017.00;;;19.10;46.37
13420;BME280;6781;58.440;15.470;2023-05-08T10:04:59;102111.72;;;19.95;44.14
13420;BME280;6781;58.440;15.470;2023-05-08T10:07:27;102107.53;;;20.02;44.29
13420;BME280;6781;58.440;15.470;2023-05-08T10:09:59;102115.75;;;18.95;44.25
13420;BME280;6781;58.440;15.470;2023-05-08T10:12:26;102115.78;;;19.80;43.51
13420;BME280;6781;58.440;15.470;2023-05-08T10:14:55;101885.69;;;18.99;44.89
13420;BME280;6781;58.440;15.470;2023-05-08T10:27:33;102068.69;;;19.67;42.38
13420;BME280;6781;58.440;15.470;2023-05-08T10:30:02;102053.16;;;20.01;42.38
13420;BME280;6781;58.440;15.470;2023-05-08T10:32:36;101997.25;;;20.07;41.92
13420;BME280;6781;58.440;15.470;2023-05-08T10:35:07;102037.63;;;20.26;41.67
13420;BME280;6781;58.440;15.470;2023-05-08T10:37:36;102082.59;;;20.24;40.74
13420;BME280;6781;58.440;15.470;2023-05-08T10:40:04;102086.63;;;20.19;41.37
13420;BME280;6781;58.440;15.470;2023-05-08T10:42:35;102088.78;;;20.60;41.45
13420;BME280;6781;58.440;15.470;2023-05-08T10:45:05;101997.41;;;18.56;39.42
13420;BME280;6781;58.440;15.470;2023-05-08T10:47:47;102082.00;;;18.31;41.14
13420;BME280;6781;58.440;15.470;2023-05-08T10:50:38;102077.91;;;18.57;43.03
13420;BME280;6781;58.440;15.470;2023-05-08T10:53:12;102062.47;;;19.02;41.69
13420;BME280;6781;58.440;15.470;2023-05-08T10:55:44;102077.03;;;19.43;41.99
13420;BME280;6781;58.440;15.470;2023-05-08T10:58:12;102069.94;;;18.97;41.96
13420;BME280;6781;58.440;15.470;2023-05-08T11:01:15;102059.91;;;19.20;40.79
13420;BME280;6781;58.440;15.470;2023-05-08T11:03:45;102069.72;;;19.28;41.94
13420;BME280;6781;58.440;15.470;2023-05-08T11:06:14;101925.06;;;18.23;40.88
13420;BME280;6781;58.440;15.470;2023-05-08T11:08:48;102034.66;;;18.61;39.01
13420;BME280;6781;58.440;15.470;2023-05-08T11:11:22;102032.84;;;18.91;39.33
13420;BME280;6781;58.440;15.470;2023-05-08T11:13:53;102030.28;;;18.21;38.38
13420;BME280;6781;58.440;15.470;2023-05-08T11:19:28;101988.13;;;18.52;43.38
13420;BME280;6781;58.440;15.470;2023-05-08T11:22:14;102056.03;;;19.14;42.51
13420;BME280;6781;58.440;15.470;2023-05-08T11:24:47;102049.09;;;19.23;42.18
13420;BME280;6781;58.440;15.470;2023-05-08T11:27:14;102034.97;;;19.24;42.51
13420;BME280;6781;58.440;15.470;2023-05-08T11:29:41;102042.75;;;19.16;41.05
13420;BME280;6781;58.440;15.470;2023-05-08T11:32:09;101960.63;;;18.66;40.41
13420;BME280;6781;58.440;15.470;2023-05-08T11:34:47;102036.94;;;19.22;40.55
13420;BME280;6781;58.440;15.470;2023-05-08T11:37:19;101869.78;;;18.05;40.02
13420;BME280;6781;58.440;15.470;2023-05-08T11:39:47;102040.81;;;19.18;41.46
13420;BME280;6781;58.440;15.470;2023-05-08T11:42:32;101958.41;;;18.61;37.79
13420;BME280;6781;58.440;15.470;2023-05-08T11:45:04;101999.28;;;19.12;37.11
13420;BME280;6781;58.440;15.470;2023-05-08T11:47:36;102026.13;;;19.25;37.77
13420;BME280;6781;58.440;15.470;2023-05-08T11:50:06;101998.22;;;19.52;39.25
13420;BME280;6781;58.440;15.470;2023-05-08T11:52:35;101893.59;;;19.26;39.36
13420;BME280;6781;58.440;15.470;2023-05-08T11:55:04;101946.31;;;19.71;36.10
13420;BME280;6781;58.440;15.470;2023-05-08T11:57:31;101911.50;;;19.77;36.12
13420;BME280;6781;58.440;15.470;2023-05-08T12:00:03;101973.19;;;19.75;35.54
13420;BME280;6781;58.440;15.470;2023-05-08T12:02:35;102006.94;;;20.70;38.14
13420;BME280;6781;58.440;15.470;2023-05-08T12:05:02;101921.84;;;20.42;35.35
13420;BME280;6781;58.440;15.470;2023-05-08T12:07:30;101784.75;;;19.45;36.77
13420;BME280;6781;58.440;15.470;2023-05-08T12:10:00;101992.25;;;20.93;36.52
13420;BME280;6781;58.440;15.470;2023-05-08T12:12:36;101907.72;;;21.03;36.78
13420;BME280;6781;58.440;15.470;2023-05-08T12:15:10;101947.22;;;21.47;35.16
13420;BME280;6781;58.440;15.470;2023-05-08T12:17:37;101867.13;;;21.30;35.44
13420;BME280;6781;58.440;15.470;2023-05-08T12:20:11;101958.13;;;21.94;33.52
13420;BME280;6781;58.440;15.470;2023-05-08T12:22:40;101892.47;;;21.57;31.77
13420;BME280;6781;58.440;15.470;2023-05-08T12:25:09;101916.63;;;21.78;32.61
13420;BME280;6781;58.440;15.470;2023-05-08T12:27:37;101923.44;;;21.89;31.09
13420;BME280;6781;58.440;15.470;2023-05-08T12:30:05;101985.13;;;22.14;34.38
13420;BME280;6781;58.440;15.470;2023-05-08T12:32:37;101971.44;;;21.76;33.14
13420;BME280;6781;58.440;15.470;2023-05-08T12:35:05;101960.00;;;22.18;33.72
13420;BME280;6781;58.440;15.470;2023-05-08T12:37:33;101939.03;;;22.40;33.51
13420;BME280;6781;58.440;15.470;2023-05-08T12:40:02;101738.84;;;20.95;33.52
13420;BME280;6781;58.440;15.470;2023-05-08T12:42:42;101944.16;;;22.50;33.52
13420;BME280;6781;58.440;15.470;2023-05-08T12:45:16;101929.63;;;22.38;31.97
13420;BME280;6781;58.440;15.470;2023-05-08T12:47:45;101739.13;;;20.75;30.34
13420;BME280;6781;58.440;15.470;2023-05-08T12:50:14;101922.66;;;22.04;33.72
13420;BME280;6781;58.440;15.470;2023-05-08T12:52:42;101864.28;;;21.65;33.35
13420;BME280;6781;58.440;15.470;2023-05-08T12:55:25;101896.25;;;22.37;32.01
13420;BME280;6781;58.440;15.470;2023-05-08T12:58:00;101924.63;;;22.59;32.66
13420;BME280;6781;58.440;15.470;2023-05-08T13:00:38;101903.97;;;22.55;31.53
13420;BME280;6781;58.440;15.470;2023-05-08T13:03:06;101812.31;;;22.15;33.41
13420;BME280;6781;58.440;15.470;2023-05-08T13:05:37;101914.72;;;22.61;32.75
13420;BME280;6781;58.440;15.470;2023-05-08T13:08:08;101921.38;;;22.33;31.81
13420;BME280;6781;58.440;15.470;2023-05-08T13:10:48;101754.66;;;21.69;31.51
13420;BME280;6781;58.440;15.470;2023-05-08T13:13:17;101912.72;;;22.80;32.90
13420;BME280;6781;58.440;15.470;2023-05-08T13:15:44;101858.22;;;22.30;30.66
13420;BME280;6781;58.440;15.470;2023-05-08T13:18:11;101900.78;;;22.92;30.86
13420;BME280;6781;58.440;15.470;2023-05-08T13:20:38;101888.94;;;23.19;31.01
13420;BME280;6781;58.440;15.470;2023-05-08T13:23:06;101827.38;;;22.86;31.55
13420;BME280;6781;58.440;15.470;2023-05-08T13:25:34;101888.22;;;22.94;31.44
13420;BME280;6781;58.440;15.470;2023-05-08T13:28:04;101853.81;;;22.78;31.18
13420;BME280;6781;58.440;15.470;2023-05-08T13:30:31;101753.50;;;22.04;32.18
13420;BME280;6781;58.440;15.470;2023-05-08T13:32:58;101730.88;;;21.77;29.50
13420;BME280;6781;58.440;15.470;2023-05-08T13:35:26;101778.59;;;22.17;32.54
13420;BME280;6781;58.440;15.470;2023-05-08T13:37:53;101723.78;;;22.02;30.75
13420;BME280;6781;58.440;15.470;2023-05-08T13:40:20;101745.91;;;22.10;30.64
13420;BME280;6781;58.440;15.470;2023-05-08T13:42:48;101860.44;;;22.73;32.77